sensor_id;sensor_type;location;lat;lon;timestamp;temperature;humidity
2625;DHT22;1322;53.256;10.386;2022-09-09T00:01:25;16.40;99.90
2625;DHT22;1322;53.256;10.386;2022-09-09T00:04:03;16.50;99.90
2625;DHT22;1322;53.256;10.386;2022-09-09T00:06:33;16.50;99.90
2625;DHT22;1322;53.256;10.386;2022-09-09T00:09:07;16.70;99.90
2625;DHT22;1322;53.256;10.386;2022-09-09T00:11:59;16.60;99.90
2625;DHT22;1322;53.256;10.386;2022-09-09T00:17:14;16.60;99.90
2625;DHT22;1322;53.256;10.386;2022-09-09T00:20:00;16.60;99.90
2625;DHT22;1322;53.256;10.386;2022-09-09T00:22:29;16.50;99.90
2625;DHT22;1322;53.256;10.386;2022-09-09T00:25:16;16.50;99.90
2625;DHT22;1322;53.256;10.386;2022-09-09T00:27:48;16.60;99.90
2625;DHT22;1322;53.256;10.386;2022-09-09T00:32:45;16.40;99.90
2625;DHT22;1322;53.256;10.386;2022-09-09T00:35:29;16.70;99.90
2625;DHT22;1322;53.256;10.386;2022-09-09T00:38:00;16.40;99.90
2625;DHT22;1322;53.256;10.386;2022-09-09T00:40:33;16.70;99.90
2625;DHT22;1322;53.256;10.386;2022-09-09T00:53:58;16.00;99.90
2625;DHT22;1322;53.256;10.386;2022-09-09T00:56:37;16.20;99.90
2625;DHT22;1322;53.256;10.386;2022-09-09T01:01:36;16.20;99.90
2625;DHT22;1322;53.256;10.386;2022-09-09T01:04:06;15.90;99.90
2625;DHT22;1322;53.256;10.386;2022-09-09T01:06:36;16.30;99.90
2625;DHT22;1322;53.256;10.386;2022-09-09T01:09:22;16.10;99.90
2625;DHT22;1322;53.256;10.386;2022-09-09T01:27:33;15.70;99.90
2625;DHT22;1322;53.256;10.386;2022-09-09T01:29:59;15.80;99.90
2625;DHT22;1322;53.256;10.386;2022-09-09T01:32:41;15.90;99.90
2625;DHT22;1322;53.256;10.386;2022-09-09T01:35:11;16.10;99.90
2625;DHT22;1322;53.256;10.386;2022-09-09T01:37:38;16.00;99.90
2625;DHT22;1322;53.256;10.386;2022-09-09T01:40:04;15.90;99.90
2625;DHT22;1322;53.256;10.386;2022-09-09T01:42:30;15.70;99.90
2625;DHT22;1322;53.256;10.386;2022-09-09T01:44:56;15.90;99.90
2625;DHT22;1322;53.256;10.386;2022-09-09T01:47:21;16.00;99.90
2625;DHT22;1322;53.256;10.386;2022-09-09T01:49:47;16.10;99.90
2625;DHT22;1322;53.256;10.386;2022-09-09T01:52:12;16.10;99.90
2625;DHT22;1322;53.256;10.386;2022-09-09T01:54:38;15.90;99.90
2625;DHT22;1322;53.256;10.386;2022-09-09T01:57:27;15.80;99.90
2625;DHT22;1322;53.256;10.386;2022-09-09T02:00:00;15.60;99.90
2625;DHT22;1322;53.256;10.386;2022-09-09T02:05:44;15.60;99.90
2625;DHT22;1322;53.256;10.386;2022-09-09T02:08:26;15.70;99.90
2625;DHT22;1322;53.256;10.386;2022-09-09T02:13:29;15.50;99.90
2625;DHT22;1322;53.256;10.386;2022-09-09T02:19:08;15.90;99.90
2625;DHT22;1322;53.256;10.386;2022-09-09T02:21:35;15.40;99.90
2625;DHT22;1322;53.256;10.386;2022-09-09T02:24:04;15.60;99.90
2625;DHT22;1322;53.256;10.386;2022-09-09T02:26:32;15.40;99.90
2625;DHT22;1322;53.256;10.386;2022-09-09T02:29:02;15.40;99.90
2625;DHT22;1322;53.256;10.386;2022-09-09T02:31:30;15.80;99.90
2625;DHT22;1322;53.256;10.386;2022-09-09T02:34:00;15.70;99.90
2625;DHT22;1322;53.256;10.386;2022-09-09T02:36:29;15.60;99.90
2625;DHT22;1322;53.256;10.386;2022-09-09T02:38:58;15.60;99.90
2625;DHT22;1322;53.256;10.386;2022-09-09T02:41:37;15.70;99.90
2625;DHT22;1322;53.256;10.386;2022-09-09T02:44:09;15.40;99.90
2625;DHT22;1322;53.256;10.386;2022-09-09T02:49:28;15.20;99.90
2625;DHT22;1322;53.256;10.386;2022-09-09T02:52:00;15.20;99.90
2625;DHT22;1322;53.256;10.386;2022-09-09T02:54:29;15.60;99.90
2625;DHT22;1322;53.256;10.386;2022-09-09T02:59:39;15.20;99.90
2625;DHT22;1322;53.256;10.386;2022-09-09T03:02:04;15.70;99.90
2625;DHT22;1322;53.256;10.386;2022-09-09T03:04:30;15.50;99.90
2625;DHT22;1322;53.256;10.386;2022-09-09T03:06:59;15.50;99.90
2625;DHT22;1322;53.256;10.386;2022-09-09T03:09:25;15.50;99.90
2625;DHT22;1322;53.256;10.386;2022-09-09T03:11:53;15.30;99.90
2625;DHT22;1322;53.256;10.386;2022-09-09T03:14:20;15.50;99.90
2625;DHT22;1322;53.256;10.386;2022-09-09T03:16:47;15.80;99.90
2625;DHT22;1322;53.256;10.386;2022-09-09T03:19:13;15.40;99.90
2625;DHT22;1322;53.256;10.386;2022-09-09T03:21:39;15.40;99.90
2625;DHT22;1322;53.256;10.386;2022-09-09T03:24:04;15.50;99.90
2625;DHT22;1322;53.256;10.386;2022-09-09T03:26:30;15.10;99.90
2625;DHT22;1322;53.256;10.386;2022-09-09T03:28:56;15.50;99.90
2625;DHT22;1322;53.256;10.386;2022-09-09T03:31:22;15.50;99.90
2625;DHT22;1322;53.256;10.386;2022-09-09T03:33:47;15.40;99.90
2625;DHT22;1322;53.256;10.386;2022-09-09T03:36:13;15.30;99.90
2625;DHT22;1322;53.256;10.386;2022-09-09T03:38:40;15.00;99.90
2625;DHT22;1322;53.256;10.386;2022-09-09T03:41:06;15.30;99.90
2625;DHT22;1322;53.256;10.386;2022-09-09T03:43:33;15.20;99.90
2625;DHT22;1322;53.256;10.386;2022-09-09T03:45:59;15.20;99.90
2625;DHT22;1322;53.256;10.386;2022-09-09T03:48:25;15.20;99.90
2625;DHT22;1322;53.256;10.386;2022-09-09T03:50:54;14.90;99.90
2625;DHT22;1322;53.256;10.386;2022-09-09T03:53:23;15.50;99.90
2625;DHT22;1322;53.256;10.386;2022-09-09T03:55:52;15.10;99.90
2625;DHT22;1322;53.256;10.386;2022-09-09T03:58:20;14.90;99.90
2625;DHT22;1322;53.256;10.386;2022-09-09T04:00:57;15.40;99.90
2625;DHT22;1322;53.256;10.386;2022-09-09T04:03:24;15.20;99.90
2625;DHT22;1322;53.256;10.386;2022-09-09T04:05:54;14.90;99.90
2625;DHT22;1322;53.256;10.386;2022-09-09T04:08:20;14.90;99.90
2625;DHT22;1322;53.256;10.386;2022-09-09T04:10:47;14.80;99.90
2625;DHT22;1322;53.256;10.386;2022-09-09T04:13:14;14.80;99.90
2625;DHT22;1322;53.256;10.386;2022-09-09T04:15:44;15.00;99.90
2625;DHT22;1322;53.256;10.386;2022-09-09T04:18:10;14.90;99.90
2625;DHT22;1322;53.256;10.386;2022-09-09T04:20:37;15.40;99.90
2625;DHT22;1322;53.256;10.386;2022-09-09T04:23:03;15.60;99.90
2625;DHT22;1322;53.256;10.386;2022-09-09T04:25:29;15.30;99.90
2625;DHT22;1322;53.256;10.386;2022-09-09T04:27:56;15.70;99.90
2625;DHT22;1322;53.256;10.386;2022-09-09T04:30:22;15.50;99.90
2625;DHT22;1322;53.256;10.386;2022-09-09T04:32:48;15.80;99.90
2625;DHT22;1322;53.256;10.386;2022-09-09T04:35:14;15.20;99.90
2625;DHT22;1322;53.256;10.386;2022-09-09T04:37:39;15.30;99.90
2625;DHT22;1322;53.256;10.386;2022-09-09T04:40:05;15.70;99.90
2625;DHT22;1322;53.256;10.386;2022-09-09T04:42:35;15.40;99.90
2625;DHT22;1322;53.256;10.386;2022-09-09T04:45:01;15.80;99.90
2625;DHT22;1322;53.256;10.386;2022-09-09T04:47:27;15.40;99.90
2625;DHT22;1322;53.256;10.386;2022-09-09T04:49:52;15.90;99.90
2625;DHT22;1322;53.256;10.386;2022-09-09T04:52:20;15.80;99.90
2625;DHT22;1322;53.256;10.386;2022-09-09T04:54:45;15.90;99.90
2625;DHT22;1322;53.256;10.386;2022-09-09T04:57:11;15.50;99.90
2625;DHT22;1322;53.256;10.386;2022-09-09T04:59:38;15.80;99.90
2625;DHT22;1322;53.256;10.386;2022-09-09T05:02:05;15.80;99.90
2625;DHT22;1322;53.256;10.386;2022-09-09T05:04:31;16.10;99.90
2625;DHT22;1322;53.256;10.386;2022-09-09T05:06:57;15.60;99.90
2625;DHT22;1322;53.256;10.386;2022-09-09T05:09:22;15.70;99.90
2625;DHT22;1322;53.256;10.386;2022-09-09T05:11:48;15.60;99.90
2625;DHT22;1322;53.256;10.386;2022-09-09T05:14:14;16.40;99.90
2625;DHT22;1322;53.256;10.386;2022-09-09T05:16:40;16.30;99.90
2625;DHT22;1322;53.256;10.386;2022-09-09T05:19:06;16.00;99.90
2625;DHT22;1322;53.256;10.386;2022-09-09T05:21:34;15.90;99.90
2625;DHT22;1322;53.256;10.386;2022-09-09T05:23:59;16.10;99.90
2625;DHT22;1322;53.256;10.386;2022-09-09T05:26:28;15.90;99.90
2625;DHT22;1322;53.256;10.386;2022-09-09T05:28:54;15.90;99.90
2625;DHT22;1322;53.256;10.386;2022-09-09T05:31:20;16.10;99.90
2625;DHT22;1322;53.256;10.386;2022-09-09T05:33:47;16.00;99.90
2625;DHT22;1322;53.256;10.386;2022-09-09T05:36:17;16.10;99.90
2625;DHT22;1322;53.256;10.386;2022-09-09T05:38:44;16.30;99.90
2625;DHT22;1322;53.256;10.386;2022-09-09T05:41:12;16.30;99.90
2625;DHT22;1322;53.256;10.386;2022-09-09T05:43:38;16.20;99.90
2625;DHT22;1322;53.256;10.386;2022-09-09T05:46:09;16.50;99.90
2625;DHT22;1322;53.256;10.386;2022-09-09T05:48:37;16.90;99.90
2625;DHT22;1322;53.256;10.386;2022-09-09T05:51:05;17.20;99.90
2625;DHT22;1322;53.256;10.386;2022-09-09T05:53:32;16.90;99.90
2625;DHT22;1322;53.256;10.386;2022-09-09T05:56:20;16.90;99.90
2625;DHT22;1322;53.256;10.386;2022-09-09T05:58:47;17.00;99.90
2625;DHT22;1322;53.256;10.386;2022-09-09T06:01:15;16.80;99.90
2625;DHT22;1322;53.256;10.386;2022-09-09T06:03:42;17.30;99.90
2625;DHT22;1322;53.256;10.386;2022-09-09T06:06:10;17.00;99.90
2625;DHT22;1322;53.256;10.386;2022-09-09T06:08:37;16.90;99.90
2625;DHT22;1322;53.256;10.386;2022-09-09T06:11:05;17.10;99.90
2625;DHT22;1322;53.256;10.386;2022-09-09T06:13:31;16.80;99.90
2625;DHT22;1322;53.256;10.386;2022-09-09T06:15:57;17.20;99.90
2625;DHT22;1322;53.256;10.386;2022-09-09T06:18:24;17.00;99.90
2625;DHT22;1322;53.256;10.386;2022-09-09T06:20:55;17.10;99.90
2625;DHT22;1322;53.256;10.386;2022-09-09T06:23:21;16.90;99.90
2625;DHT22;1322;53.256;10.386;2022-09-09T06:25:47;17.10;99.90
2625;DHT22;1322;53.256;10.386;2022-09-09T06:28:12;16.80;99.90
2625;DHT22;1322;53.256;10.386;2022-09-09T06:30:39;17.20;99.90
2625;DHT22;1322;53.256;10.386;2022-09-09T06:33:05;17.00;99.90
2625;DHT22;1322;53.256;10.386;2022-09-09T06:35:31;17.20;99.90
2625;DHT22;1322;53.256;10.386;2022-09-09T06:37:56;17.10;99.90
2625;DHT22;1322;53.256;10.386;2022-09-09T06:40:24;16.90;99.90
2625;DHT22;1322;53.256;10.386;2022-09-09T06:42:50;17.10;99.90
2625;DHT22;1322;53.256;10.386;2022-09-09T06:45:15;17.00;99.90
2625;DHT22;1322;53.256;10.386;2022-09-09T06:47:42;17.50;99.90
2625;DHT22;1322;53.256;10.386;2022-09-09T06:50:08;17.30;99.90
2625;DHT22;1322;53.256;10.386;2022-09-09T06:52:36;17.10;99.90
2625;DHT22;1322;53.256;10.386;2022-09-09T06:55:02;17.50;99.90
2625;DHT22;1322;53.256;10.386;2022-09-09T06:57:28;17.30;99.90
2625;DHT22;1322;53.256;10.386;2022-09-09T06:59:54;17.40;99.90
2625;DHT22;1322;53.256;10.386;2022-09-09T07:02:19;17.80;99.90
2625;DHT22;1322;53.256;10.386;2022-09-09T07:04:45;17.50;99.90
2625;DHT22;1322;53.256;10.386;2022-09-09T07:07:11;17.60;99.90
2625;DHT22;1322;53.256;10.386;2022-09-09T07:09:39;17.80;99.90
2625;DHT22;1322;53.256;10.386;2022-09-09T07:12:05;17.90;99.90
2625;DHT22;1322;53.256;10.386;2022-09-09T07:14:32;17.90;99.90
2625;DHT22;1322;53.256;10.386;2022-09-09T07:16:59;18.20;99.90
2625;DHT22;1322;53.256;10.386;2022-09-09T07:19:25;18.40;99.90
2625;DHT22;1322;53.256;10.386;2022-09-09T07:21:51;18.40;99.90
2625;DHT22;1322;53.256;10.386;2022-09-09T07:24:16;18.50;99.90
2625;DHT22;1322;53.256;10.386;2022-09-09T07:26:42;18.60;99.90
2625;DHT22;1322;53.256;10.386;2022-09-09T07:29:09;18.60;99.90
2625;DHT22;1322;53.256;10.386;2022-09-09T07:31:37;18.90;99.90
2625;DHT22;1322;53.256;10.386;2022-09-09T07:34:03;18.80;99.90
2625;DHT22;1322;53.256;10.386;2022-09-09T07:36:34;19.10;99.90
2625;DHT22;1322;53.256;10.386;2022-09-09T07:39:07;19.00;99.90
2625;DHT22;1322;53.256;10.386;2022-09-09T07:41:45;19.10;99.90
2625;DHT22;1322;53.256;10.386;2022-09-09T07:44:17;19.20;99.90
2625;DHT22;1322;53.256;10.386;2022-09-09T07:46:44;19.30;99.90
2625;DHT22;1322;53.256;10.386;2022-09-09T07:49:10;19.60;99.90
2625;DHT22;1322;53.256;10.386;2022-09-09T07:51:42;19.90;99.90
2625;DHT22;1322;53.256;10.386;2022-09-09T07:54:10;20.00;99.90
2625;DHT22;1322;53.256;10.386;2022-09-09T07:56:37;20.30;99.90
2625;DHT22;1322;53.256;10.386;2022-09-09T07:59:04;20.50;99.90
2625;DHT22;1322;53.256;10.386;2022-09-09T08:01:37;20.40;99.90
2625;DHT22;1322;53.256;10.386;2022-09-09T08:04:10;20.30;99.90
2625;DHT22;1322;53.256;10.386;2022-09-09T08:06:49;20.40;99.90
2625;DHT22;1322;53.256;10.386;2022-09-09T08:09:15;20.40;99.90
2625;DHT22;1322;53.256;10.386;2022-09-09T08:11:41;20.50;99.90
2625;DHT22;1322;53.256;10.386;2022-09-09T08:14:08;20.50;99.90
2625;DHT22;1322;53.256;10.386;2022-09-09T08:16:37;20.70;99.90
2625;DHT22;1322;53.256;10.386;2022-09-09T08:19:03;20.90;99.90
2625;DHT22;1322;53.256;10.386;2022-09-09T08:21:31;20.70;99.90
2625;DHT22;1322;53.256;10.386;2022-09-09T08:24:00;20.50;99.90
2625;DHT22;1322;53.256;10.386;2022-09-09T08:26:28;20.70;99.90
2625;DHT22;1322;53.256;10.386;2022-09-09T08:28:56;20.70;99.90
2625;DHT22;1322;53.256;10.386;2022-09-09T08:31:25;21.00;99.90
2625;DHT22;1322;53.256;10.386;2022-09-09T08:33:50;21.00;99.90
2625;DHT22;1322;53.256;10.386;2022-09-09T08:36:30;20.80;99.90
2625;DHT22;1322;53.256;10.386;2022-09-09T08:38:59;20.70;99.90
2625;DHT22;1322;53.256;10.386;2022-09-09T08:41:51;21.00;99.90
2625;DHT22;1322;53.256;10.386;2022-09-09T08:53:05;21.30;99.90
2625;DHT22;1322;53.256;10.386;2022-09-09T08:55:49;21.40;99.90
2625;DHT22;1322;53.256;10.386;2022-09-09T08:58:28;21.60;99.90
2625;DHT22;1322;53.256;10.386;2022-09-09T09:01:09;21.80;99.90
2625;DHT22;1322;53.256;10.386;2022-09-09T09:04:07;21.80;99.90
2625;DHT22;1322;53.256;10.386;2022-09-09T09:07:06;22.00;99.90
2625;DHT22;1322;53.256;10.386;2022-09-09T09:12:15;22.40;99.90
2625;DHT22;1322;53.256;10.386;2022-09-09T09:14:42;22.20;99.90
2625;DHT22;1322;53.256;10.386;2022-09-09T09:17:20;21.90;99.90
2625;DHT22;1322;53.256;10.386;2022-09-09T09:19:48;22.00;99.90
2625;DHT22;1322;53.256;10.386;2022-09-09T09:22:30;21.80;99.90
2625;DHT22;1322;53.256;10.386;2022-09-09T09:25:04;22.00;99.90
2625;DHT22;1322;53.256;10.386;2022-09-09T09:27:33;22.20;99.90
2625;DHT22;1322;53.256;10.386;2022-09-09T09:30:01;22.30;99.90
2625;DHT22;1322;53.256;10.386;2022-09-09T09:32:31;22.40;99.90
2625;DHT22;1322;53.256;10.386;2022-09-09T09:34:59;22.50;99.90
2625;DHT22;1322;53.256;10.386;2022-09-09T09:37:29;22.50;99.90
2625;DHT22;1322;53.256;10.386;2022-09-09T09:39:55;22.50;99.90
2625;DHT22;1322;53.256;10.386;2022-09-09T09:42:21;22.40;99.90
2625;DHT22;1322;53.256;10.386;2022-09-09T09:44:47;22.30;99.90
2625;DHT22;1322;53.256;10.386;2022-09-09T09:47:14;22.20;99.90
2625;DHT22;1322;53.256;10.386;2022-09-09T09:50:00;22.00;99.90
2625;DHT22;1322;53.256;10.386;2022-09-09T09:52:29;22.10;99.90
2625;DHT22;1322;53.256;10.386;2022-09-09T09:54:57;22.10;99.90
2625;DHT22;1322;53.256;10.386;2022-09-09T09:57:26;22.10;99.90
2625;DHT22;1322;53.256;10.386;2022-09-09T10:00:16;22.10;99.90
2625;DHT22;1322;53.256;10.386;2022-09-09T10:02:44;22.20;99.90
2625;DHT22;1322;53.256;10.386;2022-09-09T10:05:24;22.10;99.90
2625;DHT22;1322;53.256;10.386;2022-09-09T10:08:20;22.20;99.90
2625;DHT22;1322;53.256;10.386;2022-09-09T10:19:09;22.40;99.90
2625;DHT22;1322;53.256;10.386;2022-09-09T10:21:55;22.40;99.90
2625;DHT22;1322;53.256;10.386;2022-09-09T10:30:18;22.60;99.90
2625;DHT22;1322;53.256;10.386;2022-09-09T10:33:09;22.70;99.90
2625;DHT22;1322;53.256;10.386;2022-09-09T10:35:47;23.10;99.90
2625;DHT22;1322;53.256;10.386;2022-09-09T10:41:16;23.50;99.90
2625;DHT22;1322;53.256;10.386;2022-09-09T10:49:37;23.90;99.90
2625;DHT22;1322;53.256;10.386;2022-09-09T10:57:40;24.30;99.90
2625;DHT22;1322;53.256;10.386;2022-09-09T11:00:18;23.90;99.90
2625;DHT22;1322;53.256;10.386;2022-09-09T11:03:04;23.80;99.90
2625;DHT22;1322;53.256;10.386;2022-09-09T11:05:43;24.10;99.90
2625;DHT22;1322;53.256;10.386;2022-09-09T11:08:14;24.20;99.90
2625;DHT22;1322;53.256;10.386;2022-09-09T11:11:02;24.00;99.90
2625;DHT22;1322;53.256;10.386;2022-09-09T11:13:45;23.80;99.90
2625;DHT22;1322;53.256;10.386;2022-09-09T11:16:39;23.50;99.90
2625;DHT22;1322;53.256;10.386;2022-09-09T11:21:51;23.30;99.90
2625;DHT22;1322;53.256;10.386;2022-09-09T11:26:58;22.60;99.90
2625;DHT22;1322;53.256;10.386;2022-09-09T11:34:41;22.60;99.90
2625;DHT22;1322;53.256;10.386;2022-09-09T11:40:08;22.40;99.90
2625;DHT22;1322;53.256;10.386;2022-09-09T11:42:39;22.30;99.90
2625;DHT22;1322;53.256;10.386;2022-09-09T11:45:25;22.00;99.90
2625;DHT22;1322;53.256;10.386;2022-09-09T11:47:58;21.50;99.90
2625;DHT22;1322;53.256;10.386;2022-09-09T11:52:50;20.40;99.90
2625;DHT22;1322;53.256;10.386;2022-09-09T11:55:31;20.10;99.90
2625;DHT22;1322;53.256;10.386;2022-09-09T11:58:00;20.00;99.90
2625;DHT22;1322;53.256;10.386;2022-09-09T12:00:38;19.90;99.90
2625;DHT22;1322;53.256;10.386;2022-09-09T12:08:43;20.10;99.90
2625;DHT22;1322;53.256;10.386;2022-09-09T12:11:10;20.20;99.90
2625;DHT22;1322;53.256;10.386;2022-09-09T12:13:36;20.30;99.90
2625;DHT22;1322;53.256;10.386;2022-09-09T12:16:02;20.30;99.90
2625;DHT22;1322;53.256;10.386;2022-09-09T12:18:38;20.20;99.90
2625;DHT22;1322;53.256;10.386;2022-09-09T12:23:55;20.40;99.90
2625;DHT22;1322;53.256;10.386;2022-09-09T12:26:30;20.40;99.90
2625;DHT22;1322;53.256;10.386;2022-09-09T12:29:24;20.50;99.90
2625;DHT22;1322;53.256;10.386;2022-09-09T12:32:00;20.60;99.90
2625;DHT22;1322;53.256;10.386;2022-09-09T12:34:47;20.70;99.90
2625;DHT22;1322;53.256;10.386;2022-09-09T12:37:52;21.10;99.90
2625;DHT22;1322;53.256;10.386;2022-09-09T12:40:27;21.60;99.90
2625;DHT22;1322;53.256;10.386;2022-09-09T12:42:53;22.00;99.90
2625;DHT22;1322;53.256;10.386;2022-09-09T12:45:26;22.30;99.90
2625;DHT22;1322;53.256;10.386;2022-09-09T12:48:07;22.50;99.90
2625;DHT22;1322;53.256;10.386;2022-09-09T12:50:38;22.60;99.90
2625;DHT22;1322;53.256;10.386;2022-09-09T12:53:12;22.70;99.90
2625;DHT22;1322;53.256;10.386;2022-09-09T12:55:50;22.70;99.90
2625;DHT22;1322;53.256;10.386;2022-09-09T12:58:17;22.90;99.90
2625;DHT22;1322;53.256;10.386;2022-09-09T13:00:50;22.90;99.90
2625;DHT22;1322;53.256;10.386;2022-09-09T13:03:19;23.10;99.90
2625;DHT22;1322;53.256;10.386;2022-09-09T13:05:46;23.40;99.90
2625;DHT22;1322;53.256;10.386;2022-09-09T13:08:13;23.60;99.90
2625;DHT22;1322;53.256;10.386;2022-09-09T13:10:46;23.70;99.90
2625;DHT22;1322;53.256;10.386;2022-09-09T13:13:17;23.70;99.90
2625;DHT22;1322;53.256;10.386;2022-09-09T13:15:52;23.90;99.90
2625;DHT22;1322;53.256;10.386;2022-09-09T13:18:23;24.00;99.90
2625;DHT22;1322;53.256;10.386;2022-09-09T13:20:50;24.00;99.90
2625;DHT22;1322;53.256;10.386;2022-09-09T13:23:18;23.90;99.90
2625;DHT22;1322;53.256;10.386;2022-09-09T13:25:58;23.90;99.90
2625;DHT22;1322;53.256;10.386;2022-09-09T13:28:27;23.70;99.90
2625;DHT22;1322;53.256;10.386;2022-09-09T13:31:04;23.50;99.90
2625;DHT22;1322;53.256;10.386;2022-09-09T13:33:37;23.30;99.90
2625;DHT22;1322;53.256;10.386;2022-09-09T13:38:33;22.80;99.90
2625;DHT22;1322;53.256;10.386;2022-09-09T13:43:31;22.50;99.90
2625;DHT22;1322;53.256;10.386;2022-09-09T13:46:01;22.30;99.90
2625;DHT22;1322;53.256;10.386;2022-09-09T13:48:28;22.10;99.90
2625;DHT22;1322;53.256;10.386;2022-09-09T13:50:57;21.90;99.90
2625;DHT22;1322;53.256;10.386;2022-09-09T13:53:23;21.80;99.90
2625;DHT22;1322;53.256;10.386;2022-09-09T13:55:50;21.60;99.90
2625;DHT22;1322;53.256;10.386;2022-09-09T13:58:17;21.50;99.90
2625;DHT22;1322;53.256;10.386;2022-09-09T14:00:44;21.50;99.90
2625;DHT22;1322;53.256;10.386;2022-09-09T14:03:10;21.50;99.90
2625;DHT22;1322;53.256;10.386;2022-09-09T14:05:36;21.50;99.90
2625;DHT22;1322;53.256;10.386;2022-09-09T14:08:04;21.20;99.90
2625;DHT22;1322;53.256;10.386;2022-09-09T14:10:30;21.00;99.90
2625;DHT22;1322;53.256;10.386;2022-09-09T14:12:56;20.70;99.90
2625;DHT22;1322;53.256;10.386;2022-09-09T14:15:22;20.60;99.90
2625;DHT22;1322;53.256;10.386;2022-09-09T14:17:47;20.40;99.90
2625;DHT22;1322;53.256;10.386;2022-09-09T14:20:14;20.10;99.90
2625;DHT22;1322;53.256;10.386;2022-09-09T14:22:41;19.90;99.90
2625;DHT22;1322;53.256;10.386;2022-09-09T14:25:07;19.70;99.90
2625;DHT22;1322;53.256;10.386;2022-09-09T14:27:33;19.50;99.90
2625;DHT22;1322;53.256;10.386;2022-09-09T14:29:59;19.40;99.90
2625;DHT22;1322;53.256;10.386;2022-09-09T14:32:26;19.40;99.90
2625;DHT22;1322;53.256;10.386;2022-09-09T14:34:52;19.40;99.90
2625;DHT22;1322;53.256;10.386;2022-09-09T14:37:18;19.40;99.90
2625;DHT22;1322;53.256;10.386;2022-09-09T14:39:44;19.40;99.90
2625;DHT22;1322;53.256;10.386;2022-09-09T14:42:16;19.50;99.90
2625;DHT22;1322;53.256;10.386;2022-09-09T14:44:42;19.50;99.90
2625;DHT22;1322;53.256;10.386;2022-09-09T14:47:08;19.50;99.90
2625;DHT22;1322;53.256;10.386;2022-09-09T14:49:34;19.40;99.90
2625;DHT22;1322;53.256;10.386;2022-09-09T14:52:01;19.40;99.90
2625;DHT22;1322;53.256;10.386;2022-09-09T14:54:26;19.30;99.90
2625;DHT22;1322;53.256;10.386;2022-09-09T14:56:53;19.20;99.90
2625;DHT22;1322;53.256;10.386;2022-09-09T14:59:19;19.00;99.90
2625;DHT22;1322;53.256;10.386;2022-09-09T15:01:45;19.00;99.90
2625;DHT22;1322;53.256;10.386;2022-09-09T15:04:12;19.00;99.90
2625;DHT22;1322;53.256;10.386;2022-09-09T15:06:38;18.90;99.90
2625;DHT22;1322;53.256;10.386;2022-09-09T15:09:05;18.80;99.90
2625;DHT22;1322;53.256;10.386;2022-09-09T15:11:34;18.90;99.90
2625;DHT22;1322;53.256;10.386;2022-09-09T15:14:03;19.00;99.90
2625;DHT22;1322;53.256;10.386;2022-09-09T15:16:29;18.90;99.90
2625;DHT22;1322;53.256;10.386;2022-09-09T15:18:57;19.10;99.90
2625;DHT22;1322;53.256;10.386;2022-09-09T15:21:25;19.20;99.90
2625;DHT22;1322;53.256;10.386;2022-09-09T15:23:51;19.40;99.90
2625;DHT22;1322;53.256;10.386;2022-09-09T15:26:17;19.60;99.90
2625;DHT22;1322;53.256;10.386;2022-09-09T15:28:44;19.70;99.90
2625;DHT22;1322;53.256;10.386;2022-09-09T15:31:18;19.90;99.90
2625;DHT22;1322;53.256;10.386;2022-09-09T15:38:42;20.10;99.90
2625;DHT22;1322;53.256;10.386;2022-09-09T15:41:09;20.20;99.90
2625;DHT22;1322;53.256;10.386;2022-09-09T15:43:35;20.30;99.90
2625;DHT22;1322;53.256;10.386;2022-09-09T15:48:45;20.50;99.90
2625;DHT22;1322;53.256;10.386;2022-09-09T15:51:11;20.60;99.90
2625;DHT22;1322;53.256;10.386;2022-09-09T15:53:38;20.60;99.90
2625;DHT22;1322;53.256;10.386;2022-09-09T15:56:05;20.60;99.90
2625;DHT22;1322;53.256;10.386;2022-09-09T15:58:32;20.70;99.90
2625;DHT22;1322;53.256;10.386;2022-09-09T16:01:08;20.70;99.90
2625;DHT22;1322;53.256;10.386;2022-09-09T16:03:35;20.60;99.90
2625;DHT22;1322;53.256;10.386;2022-09-09T16:06:02;20.60;99.90
2625;DHT22;1322;53.256;10.386;2022-09-09T16:08:38;20.60;99.90
2625;DHT22;1322;53.256;10.386;2022-09-09T16:11:06;20.60;99.90
2625;DHT22;1322;53.256;10.386;2022-09-09T16:13:36;20.70;99.90
2625;DHT22;1322;53.256;10.386;2022-09-09T16:16:02;20.70;99.90
2625;DHT22;1322;53.256;10.386;2022-09-09T16:18:40;20.70;99.90
2625;DHT22;1322;53.256;10.386;2022-09-09T16:21:07;20.70;99.90
2625;DHT22;1322;53.256;10.386;2022-09-09T16:23:36;20.80;99.90
2625;DHT22;1322;53.256;10.386;2022-09-09T16:26:02;20.70;99.90
2625;DHT22;1322;53.256;10.386;2022-09-09T16:28:28;20.70;99.90
2625;DHT22;1322;53.256;10.386;2022-09-09T16:30:54;20.60;99.90
2625;DHT22;1322;53.256;10.386;2022-09-09T16:33:19;20.50;99.90
2625;DHT22;1322;53.256;10.386;2022-09-09T16:35:45;20.40;99.90
2625;DHT22;1322;53.256;10.386;2022-09-09T16:38:11;20.40;99.90
2625;DHT22;1322;53.256;10.386;2022-09-09T16:40:38;20.40;99.90
2625;DHT22;1322;53.256;10.386;2022-09-09T16:43:04;20.20;99.90
2625;DHT22;1322;53.256;10.386;2022-09-09T16:45:31;20.20;99.90
2625;DHT22;1322;53.256;10.386;2022-09-09T16:47:58;20.10;99.90
2625;DHT22;1322;53.256;10.386;2022-09-09T16:50:24;20.10;99.90
2625;DHT22;1322;53.256;10.386;2022-09-09T16:52:51;20.10;99.90
2625;DHT22;1322;53.256;10.386;2022-09-09T16:55:16;20.10;99.90
2625;DHT22;1322;53.256;10.386;2022-09-09T16:57:42;20.10;99.90
2625;DHT22;1322;53.256;10.386;2022-09-09T17:00:08;20.10;99.90
2625;DHT22;1322;53.256;10.386;2022-09-09T17:02:34;20.10;99.90
2625;DHT22;1322;53.256;10.386;2022-09-09T17:05:00;20.00;99.90
2625;DHT22;1322;53.256;10.386;2022-09-09T17:07:25;20.00;99.90
2625;DHT22;1322;53.256;10.386;2022-09-09T17:09:51;20.00;99.90
2625;DHT22;1322;53.256;10.386;2022-09-09T17:12:19;19.90;99.90
2625;DHT22;1322;53.256;10.386;2022-09-09T17:14:45;19.80;99.90
2625;DHT22;1322;53.256;10.386;2022-09-09T17:17:11;19.80;99.90
2625;DHT22;1322;53.256;10.386;2022-09-09T17:19:36;19.80;99.90
2625;DHT22;1322;53.256;10.386;2022-09-09T17:22:02;19.70;99.90
2625;DHT22;1322;53.256;10.386;2022-09-09T17:24:28;19.70;99.90
2625;DHT22;1322;53.256;10.386;2022-09-09T17:26:54;19.60;99.90
2625;DHT22;1322;53.256;10.386;2022-09-09T17:29:20;19.50;99.90
2625;DHT22;1322;53.256;10.386;2022-09-09T17:31:46;19.50;99.90
2625;DHT22;1322;53.256;10.386;2022-09-09T17:34:12;19.50;99.90
2625;DHT22;1322;53.256;10.386;2022-09-09T17:36:39;19.40;99.90
2625;DHT22;1322;53.256;10.386;2022-09-09T17:39:05;19.40;99.90
2625;DHT22;1322;53.256;10.386;2022-09-09T17:41:34;19.40;99.90
2625;DHT22;1322;53.256;10.386;2022-09-09T17:44:00;19.30;99.90
2625;DHT22;1322;53.256;10.386;2022-09-09T17:46:29;19.20;99.90
2625;DHT22;1322;53.256;10.386;2022-09-09T17:48:59;19.20;99.90
2625;DHT22;1322;53.256;10.386;2022-09-09T17:51:27;19.10;99.90
2625;DHT22;1322;53.256;10.386;2022-09-09T17:53:57;19.10;99.90
2625;DHT22;1322;53.256;10.386;2022-09-09T17:56:28;19.10;99.90
2625;DHT22;1322;53.256;10.386;2022-09-09T17:58:56;19.00;99.90
2625;DHT22;1322;53.256;10.386;2022-09-09T18:01:24;18.90;99.90
2625;DHT22;1322;53.256;10.386;2022-09-09T18:03:53;18.90;99.90
2625;DHT22;1322;53.256;10.386;2022-09-09T18:06:21;18.90;99.90